Погода Райскна 2 недели

Подляское воеводство, Польша

17 - 30 июля
  • 17июля
    Сегодня
    +17°
    +29°
    Небольшая облачность
    ВремяПогодаТемператураВлажностьДавлениеВетер, м/сВероятность осадков
    02:00Небольшая облачность, ливень+20°C94 %745 мм1.2 м/с67 %
    05:00Практически безоблачно+20°C95 %746 мм1.2 м/с21 %
    08:00Облачно с прояснениями+23°C83 %748 мм1.7 м/с2 %
    11:00Небольшая облачность+26°C60 %748 мм2.1 м/с2 %
    14:00Небольшая облачность+28°C51 %748 мм2.2 м/с2 %
    17:00Практически безоблачно+28°C53 %748 мм2.4 м/с5 %
    20:00Небольшая облачность+24°C55 %749 мм1.5 м/с2 %
    23:00Облачно с прояснениями+19°C56 %750 мм1.2 м/с7 %
  • 18июля
    Четверг
    +13°
    +26°
    Пасмурно, сплошная облачность
    ВремяПогодаТемператураВлажностьДавлениеВетер, м/сВероятность осадков
    02:00Облачно с прояснениями+18°C66 %749 мм1.0 м/с10 %
    05:00Ясно и безоблачно+17°C75 %750 мм0.8 м/с9 %
    08:00Ясно и безоблачно+21°C69 %751 мм1.6 м/с2 %
    11:00Практически безоблачно+24°C51 %751 мм2.7 м/с9 %
    14:00Пасмурно, сплошная облачность+26°C44 %750 мм2.9 м/с12 %
    17:00Практически безоблачно+25°C46 %750 мм2.4 м/с3 %
    20:00Ясно и безоблачно+22°C55 %750 мм1.8 м/с2 %
    23:00Практически безоблачно+17°C69 %751 мм1.1 м/с2 %
  • 19июля
    Пятница
    +12°
    +26°
    Ясно и безоблачно
    ВремяПогодаТемператураВлажностьДавлениеВетер, м/сВероятность осадков
    02:00Ясно и безоблачно+15°C79 %751 мм1.1 м/с2 %
    05:00Небольшая облачность+14°C90 %751 мм1.1 м/с2 %
    08:00Ясно и безоблачно+18°C77 %751 мм1.8 м/с2 %
    11:00Ясно и безоблачно+23°C56 %751 мм2.7 м/с2 %
    14:00Ясно и безоблачно+25°C46 %750 мм2.8 м/с2 %
    17:00Ясно и безоблачно+25°C45 %749 мм2.8 м/с2 %
    20:00Ясно и безоблачно+21°C58 %748 мм1.5 м/с2 %
    23:00Ясно и безоблачно+16°C64 %748 мм1.1 м/с2 %
  • 20июля
    Суббота
    +13°
    +25°
    Ясно и безоблачно
    ВремяПогодаТемператураВлажностьДавлениеВетер, м/сВероятность осадков
    02:00Небольшая облачность+13°C79 %748 мм1.0 м/с2 %
    05:00Облачно с прояснениями+12°C89 %747 мм0.9 м/с2 %
    08:00Небольшая облачность+18°C73 %747 мм1.6 м/с2 %
    11:00Ясно и безоблачно+22°C51 %746 мм2.2 м/с2 %
    14:00Ясно и безоблачно+25°C41 %745 мм2.2 м/с2 %
    17:00Ясно и безоблачно+25°C39 %744 мм2.1 м/с2 %
    20:00Ясно и безоблачно+22°C60 %744 мм1.1 м/с2 %
    23:00Ясно и безоблачно+17°C67 %744 мм0.7 м/с2 %
  • 21июля
    Воскресенье
    +14°
    +27°
    Практически безоблачно
    ВремяПогодаТемператураВлажностьДавлениеВетер, м/сВероятность осадков
    02:00Ясно и безоблачно+15°C82 %743 мм0.8 м/с2 %
    05:00Ясно и безоблачно+14°C90 %743 мм0.9 м/с2 %
    08:00Ясно и безоблачно+20°C69 %743 мм1.3 м/с2 %
    11:00Ясно и безоблачно+24°C50 %743 мм2.1 м/с4 %
    14:00Практически безоблачно+27°C43 %742 мм2.1 м/с8 %
    17:00Ясно и безоблачно+27°C41 %741 мм2.3 м/с2 %
    20:00Небольшая облачность+23°C66 %741 мм1.1 м/с2 %
    23:00Ясно и безоблачно+17°C60 %741 мм0.8 м/с2 %
Мы используем cookies
Соглашаюсь